Time,TemperatureF,DewpointF,PressureIn,WindDirection,WindDirectionDegrees,WindSpeedMPH,WindSpeedGustMPH,Humidity,HourlyPrecipIn,Conditions,Clouds,dailyrainin,SoftwareType,DateUTC
2013-07-18 17:11:00,94.0,62.0,30.01,SSW,199,0.0,0.0,35,0.00,,,0.00,,2013-07-18 22:11:00,
2013-07-18 17:22:00,94.0,62.0,30.01,SSE,160,10.0,10.0,35,0.00,,,0.00,,2013-07-18 22:22:00,
2013-07-18 17:32:00,94.0,62.0,30.01,SSE,160,10.0,10.0,35,0.00,,,0.00,,2013-07-18 22:32:00,
2013-07-18 17:43:00,94.0,63.0,30.00,South,190,6.0,6.0,36,0.00,,,0.00,,2013-07-18 22:43:00,
2013-07-18 17:53:00,95.0,63.0,29.99,South,175,2.0,2.0,35,0.00,,,0.00,,2013-07-18 22:53:00,
2013-07-18 18:02:00,95.0,63.0,29.99,South,175,2.0,2.0,35,0.00,,,0.00,,2013-07-18 23:02:00,
2013-07-18 18:11:00,94.0,62.0,29.99,SSW,193,4.0,4.0,35,0.00,,,0.00,,2013-07-18 23:11:00,
2013-07-18 18:22:00,94.0,62.0,29.98,SE,134,2.0,2.0,35,0.00,,,0.00,,2013-07-18 23:22:00,
2013-07-18 18:32:00,94.0,62.0,29.98,SE,134,2.0,2.0,35,0.00,,,0.00,,2013-07-18 23:32:00,
2013-07-18 18:42:00,94.0,63.0,29.98,South,179,7.0,7.0,36,0.00,,,0.00,,2013-07-18 23:42:00,
2013-07-18 18:52:00,93.0,63.0,29.98,South,189,3.0,3.0,37,0.00,,,0.00,,2013-07-18 23:52:00,
2013-07-18 19:01:00,93.0,63.0,29.98,South,189,3.0,3.0,37,0.00,,,0.00,,2013-07-19 00:01:00,
2013-07-18 19:11:00,93.0,64.0,29.97,South,175,2.0,2.0,38,0.00,,,0.00,,2013-07-19 00:11:00,
2013-07-18 19:22:00,93.0,64.0,29.97,South,188,5.0,5.0,38,0.00,,,0.00,,2013-07-19 00:22:00,
2013-07-18 19:32:00,93.0,64.0,29.97,South,188,5.0,5.0,38,0.00,,,0.00,,2013-07-19 00:32:00,
2013-07-18 19:43:00,92.0,64.0,29.97,South,188,0.0,0.0,40,0.00,,,0.00,,2013-07-19 00:43:00,
2013-07-18 19:52:00,92.0,65.0,29.97,South,188,4.0,4.0,41,0.00,,,0.00,,2013-07-19 00:52:00,
2013-07-18 20:01:00,92.0,65.0,29.97,South,188,4.0,4.0,41,0.00,,,0.00,,2013-07-19 01:01:00,
2013-07-18 20:11:00,91.0,64.0,29.97,South,188,1.0,1.0,41,0.00,,,0.00,,2013-07-19 01:11:00,
2013-07-18 20:22:00,91.0,65.0,29.97,South,188,0.0,0.0,43,0.00,,,0.00,,2013-07-19 01:22:00,
2013-07-18 20:32:00,91.0,65.0,29.97,South,188,0.0,0.0,43,0.00,,,0.00,,2013-07-19 01:32:00,
2013-07-18 20:42:00,90.0,65.0,29.96,South,188,0.0,0.0,44,0.00,,,0.00,,2013-07-19 01:42:00,
2013-07-18 20:52:00,89.0,66.0,29.96,South,188,0.0,0.0,47,0.00,,,0.00,,2013-07-19 01:52:00,
2013-07-18 21:01:00,89.0,66.0,29.96,South,188,0.0,0.0,47,0.00,,,0.00,,2013-07-19 02:01:00,
2013-07-18 21:11:00,87.0,66.0,29.96,South,188,0.0,0.0,50,0.00,,,0.00,,2013-07-19 02:11:00,
2013-07-18 21:22:00,86.0,67.0,29.97,South,188,0.0,0.0,53,0.00,,,0.00,,2013-07-19 02:22:00,
2013-07-18 21:32:00,86.0,67.0,29.97,South,188,0.0,0.0,53,0.00,,,0.00,,2013-07-19 02:32:00,
2013-07-18 21:42:00,85.0,66.0,29.97,South,188,0.0,0.0,54,0.00,,,0.00,,2013-07-19 02:42:00,
2013-07-18 21:52:00,83.0,66.0,29.98,South,188,0.0,0.0,57,0.00,,,0.00,,2013-07-19 02:52:00,
2013-07-18 22:01:00,83.0,66.0,29.98,South,188,0.0,0.0,57,0.00,,,0.00,,2013-07-19 03:01:00,
2013-07-18 22:11:00,82.0,65.0,29.98,South,188,0.0,0.0,57,0.00,,,0.00,,2013-07-19 03:11:00,
2013-07-18 22:22:00,82.0,66.0,29.98,South,188,0.0,0.0,58,0.00,,,0.00,,2013-07-19 03:22:00,
2013-07-18 22:32:00,82.0,66.0,29.98,South,188,0.0,0.0,58,0.00,,,0.00,,2013-07-19 03:32:00,
2013-07-18 22:42:00,82.0,66.0,29.98,South,188,0.0,0.0,58,0.00,,,0.00,,2013-07-19 03:42:00,
2013-07-18 22:52:00,82.0,64.0,29.98,South,188,0.0,0.0,55,0.00,,,0.00,,2013-07-19 03:52:00,
2013-07-18 23:02:00,82.0,64.0,29.98,South,188,0.0,0.0,55,0.00,,,0.00,,2013-07-19 04:02:00,
2013-07-18 23:12:00,83.0,65.0,29.98,South,188,0.0,0.0,54,0.00,,,0.00,,2013-07-19 04:12:00,
2013-07-18 23:22:00,82.0,65.0,29.98,South,188,0.0,0.0,56,0.00,,,0.00,,2013-07-19 04:22:00,
2013-07-18 23:33:00,82.0,65.0,29.98,South,188,0.0,0.0,56,0.00,,,0.00,,2013-07-19 04:33:00,
2013-07-18 23:43:00,81.0,65.0,29.98,South,188,0.0,0.0,59,0.00,,,0.00,,2013-07-19 04:43:00,
2013-07-18 23:52:00,80.0,66.0,29.98,South,188,0.0,0.0,62,0.00,,,0.00,,2013-07-19 04:52:00,